createdAt,value
2019-04-16T00:01:49.469Z,4.80
2019-04-16T00:04:28.325Z,4.80
2019-04-16T00:07:19.273Z,4.80
2019-04-16T00:09:56.591Z,4.70
2019-04-16T00:12:31.005Z,4.60
2019-04-16T00:15:03.866Z,4.60
2019-04-16T00:17:36.953Z,4.50
2019-04-16T00:20:11.166Z,4.50
2019-04-16T00:22:55.646Z,4.60
2019-04-16T00:25:28.606Z,4.70
2019-04-16T00:28:01.559Z,4.60
2019-04-16T00:30:35.650Z,4.50
2019-04-16T00:33:10.694Z,4.50
2019-04-16T00:35:46.460Z,4.60
2019-04-16T00:38:22.410Z,4.50
2019-04-16T00:40:53.246Z,4.30
2019-04-16T00:43:26.188Z,4.30
2019-04-16T00:45:59.805Z,4.10
2019-04-16T00:48:33.010Z,4.20
2019-04-16T00:51:06.219Z,4.40
2019-04-16T00:53:39.770Z,4.30
2019-04-16T00:56:13.451Z,4.20
2019-04-16T00:58:49.390Z,4.20
2019-04-16T01:01:22.533Z,4.30
2019-04-16T01:03:55.347Z,4.10
2019-04-16T01:06:29.246Z,4.30
2019-04-16T01:09:02.409Z,4.30
2019-04-16T01:11:35.385Z,4.20
2019-04-16T01:14:08.754Z,4.10
2019-04-16T01:16:41.771Z,4.10
2019-04-16T01:19:14.851Z,4.20
2019-04-16T01:21:49.886Z,4.10
2019-04-16T01:24:23.006Z,3.90
2019-04-16T01:26:58.380Z,3.80
2019-04-16T01:29:33.858Z,3.70
2019-04-16T01:32:23.674Z,4.00
2019-04-16T01:35:01.087Z,3.90
2019-04-16T01:37:35.706Z,4.00
2019-04-16T01:40:10.654Z,4.10
2019-04-16T01:42:43.827Z,4.10
2019-04-16T01:45:16.766Z,4.10
2019-04-16T01:47:49.766Z,4.20
2019-04-16T01:50:23.027Z,4.10
2019-04-16T01:52:55.926Z,4.10
2019-04-16T01:55:28.886Z,4.10
2019-04-16T01:58:02.839Z,4.10
2019-04-16T02:00:36.518Z,4.00
2019-04-16T02:03:10.688Z,4.00
2019-04-16T02:05:43.687Z,3.60
2019-04-16T02:08:16.727Z,3.60
2019-04-16T02:10:50.526Z,3.70
2019-04-16T02:13:23.805Z,3.80
2019-04-16T02:15:56.652Z,3.90
2019-04-16T02:18:30.409Z,4.00
2019-04-16T02:21:03.686Z,3.80
2019-04-16T02:23:36.433Z,3.90
2019-04-16T02:26:09.688Z,4.00
2019-04-16T02:28:43.047Z,4.10
2019-04-16T02:31:16.416Z,3.90
2019-04-16T02:33:49.928Z,3.80
2019-04-16T02:36:23.326Z,3.90
2019-04-16T02:38:56.887Z,4.10
2019-04-16T02:41:30.266Z,4.20
2019-04-16T02:44:03.129Z,4.20
2019-04-16T02:46:36.008Z,4.00
2019-04-16T02:49:09.535Z,4.10
2019-04-16T02:51:43.966Z,4.10
2019-04-16T02:54:19.476Z,4.10
2019-04-16T02:57:10.806Z,4.10
2019-04-16T02:59:48.166Z,4.00
2019-04-16T03:02:23.697Z,4.00
2019-04-16T03:05:01.717Z,4.00
2019-04-16T03:07:34.866Z,3.80
2019-04-16T03:10:12.284Z,4.00
2019-04-16T03:12:42.327Z,4.10
2019-04-16T03:15:16.886Z,4.00
2019-04-16T03:17:50.054Z,3.90
2019-04-16T03:20:23.920Z,4.00
2019-04-16T03:22:57.562Z,3.60
2019-04-16T03:25:30.482Z,3.50
2019-04-16T03:28:03.328Z,3.20
2019-04-16T03:30:42.275Z,3.30
2019-04-16T03:33:14.274Z,3.50
2019-04-16T03:35:48.226Z,3.60
2019-04-16T03:38:21.427Z,3.70
2019-04-16T03:40:56.084Z,3.80
2019-04-16T03:43:32.163Z,3.70
2019-04-16T03:46:04.029Z,3.60
2019-04-16T03:48:37.588Z,3.60
2019-04-16T03:51:10.717Z,3.60
2019-04-16T03:53:46.576Z,3.70
2019-04-16T03:56:18.688Z,3.50
2019-04-16T03:58:52.095Z,3.70
2019-04-16T04:01:25.096Z,4.00
2019-04-16T04:03:58.640Z,4.10
2019-04-16T04:06:31.453Z,4.00
2019-04-16T04:09:05.887Z,3.70
2019-04-16T04:11:41.166Z,4.00
2019-04-16T04:14:13.726Z,3.70
2019-04-16T04:16:46.807Z,3.40
2019-04-16T04:19:19.705Z,3.30
2019-04-16T04:21:53.750Z,3.20
2019-04-16T04:24:28.504Z,3.50
2019-04-16T04:27:02.026Z,3.40
2019-04-16T04:29:34.947Z,3.30
2019-04-16T04:32:07.926Z,3.50
2019-04-16T04:34:40.987Z,3.60
2019-04-16T04:37:13.968Z,3.80
2019-04-16T04:39:47.535Z,3.70
2019-04-16T04:42:20.448Z,3.70
2019-04-16T04:44:53.446Z,3.60
2019-04-16T04:47:26.187Z,3.70
2019-04-16T04:49:59.595Z,3.50
2019-04-16T04:52:33.787Z,3.30
2019-04-16T04:55:07.249Z,3.30
2019-04-16T04:57:42.006Z,3.30
2019-04-16T05:00:15.039Z,3.40
2019-04-16T05:02:48.046Z,3.50
2019-04-16T05:05:25.559Z,3.50
2019-04-16T05:07:59.733Z,3.60
2019-04-16T05:10:31.626Z,3.60
2019-04-16T05:13:04.926Z,3.60
2019-04-16T05:15:38.333Z,3.50
2019-04-16T05:18:11.166Z,3.60
2019-04-16T05:20:46.757Z,3.70
2019-04-16T05:23:18.649Z,3.50
2019-04-16T05:25:51.694Z,3.40
2019-04-16T05:28:24.626Z,3.40
2019-04-16T05:30:57.633Z,3.30
2019-04-16T05:33:30.585Z,3.40
2019-04-16T05:36:03.386Z,3.40
2019-04-16T05:38:37.927Z,3.50
2019-04-16T05:41:13.632Z,3.70
2019-04-16T05:43:45.256Z,3.70
2019-04-16T05:46:18.934Z,3.70
2019-04-16T05:48:54.007Z,3.60
2019-04-16T05:51:28.271Z,3.60
2019-04-16T05:54:12.163Z,3.70
2019-04-16T05:56:47.554Z,3.70
2019-04-16T05:59:20.566Z,3.90
2019-04-16T06:01:57.373Z,4.00
2019-04-16T06:04:29.426Z,4.10
2019-04-16T06:07:07.175Z,4.20
2019-04-16T06:09:37.287Z,4.30
2019-04-16T06:12:10.247Z,4.40
2019-04-16T06:14:46.478Z,4.50
2019-04-16T06:17:21.214Z,4.50
2019-04-16T06:19:58.434Z,4.60
2019-04-16T06:22:32.907Z,4.70
2019-04-16T06:25:09.507Z,4.70
2019-04-16T06:27:44.666Z,4.80
2019-04-16T06:30:20.005Z,4.80
2019-04-16T06:33:06.521Z,4.90
2019-04-16T06:35:44.002Z,4.90
2019-04-16T06:38:18.733Z,4.90
2019-04-16T06:41:05.306Z,5.00
2019-04-16T06:43:46.275Z,5.00
2019-04-16T06:46:24.773Z,5.00
2019-04-16T06:49:03.486Z,5.20
2019-04-16T06:52:08.306Z,5.20
2019-04-16T06:54:47.007Z,5.20
2019-04-16T06:57:27.505Z,5.20
2019-04-16T07:00:02.309Z,5.20
2019-04-16T07:02:37.439Z,5.30
2019-04-16T07:05:11.006Z,5.30
2019-04-16T07:08:01.286Z,5.30
2019-04-16T07:10:44.412Z,5.50
2019-04-16T07:13:11.329Z,5.60
2019-04-16T07:15:44.625Z,5.80
2019-04-16T07:18:20.498Z,5.70
2019-04-16T07:20:53.426Z,5.90
2019-04-16T07:23:26.734Z,6.30
2019-04-16T07:26:03.299Z,6.30
2019-04-16T07:28:36.843Z,6.30
2019-04-16T07:31:31.858Z,6.30
2019-04-16T07:33:57.950Z,6.60
2019-04-16T07:36:33.205Z,7.00
2019-04-16T07:39:28.789Z,7.20
2019-04-16T07:42:11.785Z,7.40
2019-04-16T07:44:56.751Z,7.60
2019-04-16T07:47:31.227Z,7.90
2019-04-16T07:50:05.794Z,8.20
2019-04-16T07:52:41.912Z,8.20
2019-04-16T07:55:26.509Z,8.30
2019-04-16T07:58:00.254Z,8.60
2019-04-16T08:00:32.952Z,8.70
2019-04-16T08:03:08.530Z,8.90
2019-04-16T08:05:41.979Z,9.20
2019-04-16T08:08:15.295Z,9.30
2019-04-16T08:10:48.230Z,9.20
2019-04-16T08:13:22.995Z,9.40
2019-04-16T08:15:58.305Z,9.40
2019-04-16T08:18:31.436Z,9.40
2019-04-16T08:21:10.188Z,9.70
2019-04-16T08:23:40.482Z,9.70
2019-04-16T08:26:13.923Z,10.10
2019-04-16T08:28:46.994Z,10.00
2019-04-16T08:31:21.526Z,10.40
2019-04-16T08:33:54.286Z,10.50
2019-04-16T08:36:27.287Z,11.00
2019-04-16T08:39:00.187Z,11.30
2019-04-16T08:41:33.313Z,10.40
2019-04-16T08:44:09.633Z,10.20
2019-04-16T08:46:41.319Z,11.10
2019-04-16T08:49:15.247Z,11.10
2019-04-16T08:51:48.486Z,11.40
2019-04-16T08:54:22.008Z,11.50
2019-04-16T08:56:54.869Z,11.40
2019-04-16T08:59:27.915Z,11.30
2019-04-16T09:02:01.354Z,11.10
2019-04-16T09:04:35.259Z,11.30
2019-04-16T09:07:12.993Z,11.60
2019-04-16T09:09:46.408Z,11.80
2019-04-16T09:12:19.394Z,11.80
2019-04-16T09:14:56.005Z,11.80
2019-04-16T09:17:29.126Z,12.00
2019-04-16T09:20:05.151Z,12.30
2019-04-16T09:22:48.842Z,12.50
2019-04-16T09:25:21.919Z,13.10
2019-04-16T09:28:00.752Z,13.10
2019-04-16T09:30:35.234Z,12.60
2019-04-16T09:33:16.006Z,12.30
2019-04-16T09:35:53.305Z,13.00
2019-04-16T09:38:33.221Z,13.30
2019-04-16T09:41:10.729Z,13.70
2019-04-16T09:43:48.003Z,13.40
2019-04-16T09:46:31.492Z,13.30
2019-04-16T09:48:55.406Z,14.30
2019-04-16T09:51:28.826Z,14.00
2019-04-16T09:54:01.829Z,13.10
2019-04-16T09:56:35.016Z,13.10
2019-04-16T09:59:10.958Z,13.10
2019-04-16T10:01:51.774Z,13.70
2019-04-16T10:04:24.936Z,13.60
2019-04-16T10:06:57.975Z,13.80
2019-04-16T10:09:31.496Z,14.30
2019-04-16T10:12:05.045Z,14.50
2019-04-16T10:14:39.856Z,14.20
2019-04-16T10:17:12.959Z,14.30
2019-04-16T10:19:46.509Z,14.80
2019-04-16T10:22:20.121Z,15.00
2019-04-16T10:25:03.771Z,14.50
2019-04-16T10:27:38.246Z,14.40
2019-04-16T10:30:18.970Z,14.80
2019-04-16T10:32:52.446Z,14.90
2019-04-16T10:35:25.772Z,14.30
2019-04-16T10:38:00.277Z,14.90
2019-04-16T10:40:37.911Z,14.50
2019-04-16T10:43:27.520Z,15.20
2019-04-16T10:46:04.549Z,15.00
2019-04-16T10:48:44.986Z,14.50
2019-04-16T10:51:26.113Z,14.10
2019-04-16T10:56:47.707Z,15.00
2019-04-16T10:59:40.351Z,15.00
2019-04-16T11:02:12.925Z,15.30
2019-04-16T11:04:47.525Z,15.40
2019-04-16T11:07:22.252Z,15.20
2019-04-16T11:09:55.457Z,15.40
2019-04-16T11:12:28.422Z,15.50
2019-04-16T11:15:01.218Z,15.50
2019-04-16T11:17:34.327Z,15.20
2019-04-16T11:20:07.256Z,14.60
2019-04-16T11:22:40.079Z,15.20
2019-04-16T11:25:13.066Z,15.60
2019-04-16T11:27:45.942Z,15.00
2019-04-16T11:30:29.738Z,15.60
2019-04-16T11:33:02.568Z,16.10
2019-04-16T11:35:35.505Z,15.50
2019-04-16T11:38:08.449Z,15.20
2019-04-16T11:40:41.510Z,15.50
2019-04-16T11:43:14.469Z,14.80
2019-04-16T11:45:47.497Z,15.40
2019-04-16T11:48:20.403Z,15.70
2019-04-16T11:50:53.306Z,15.30
2019-04-16T11:53:26.212Z,15.50
2019-04-16T11:55:59.289Z,16.20
2019-04-16T11:58:34.877Z,15.90
2019-04-16T12:01:09.402Z,15.30
2019-04-16T12:04:00.079Z,15.30
2019-04-16T12:06:51.149Z,15.70
2019-04-16T12:09:43.861Z,16.20
2019-04-16T12:12:34.662Z,15.50
2019-04-16T12:15:11.318Z,16.30
2019-04-16T12:18:00.882Z,16.30
2019-04-16T12:20:50.755Z,15.50
2019-04-16T12:23:26.099Z,15.60
2019-04-16T12:26:16.467Z,15.70
2019-04-16T12:28:55.354Z,16.30
2019-04-16T12:31:48.043Z,15.40
2019-04-16T12:34:23.628Z,15.40
2019-04-16T12:37:13.875Z,16.10
2019-04-16T12:40:04.495Z,16.20
2019-04-16T12:42:42.199Z,16.20
2019-04-16T12:45:18.054Z,15.90
2019-04-16T12:47:59.130Z,15.90
2019-04-16T12:50:40.321Z,16.00
2019-04-16T12:53:14.675Z,16.10
2019-04-16T12:55:49.189Z,16.20
2019-04-16T12:58:25.568Z,15.90
2019-04-16T13:01:14.686Z,15.70
2019-04-16T13:03:52.605Z,15.90
2019-04-16T13:06:32.687Z,16.20
2019-04-16T13:09:17.196Z,16.30
2019-04-16T13:12:01.215Z,16.80
2019-04-16T13:14:42.907Z,16.40
2019-04-16T13:17:33.826Z,16.50
2019-04-16T13:20:08.306Z,16.40
2019-04-16T13:22:45.669Z,16.10
2019-04-16T13:25:23.295Z,16.00
2019-04-16T13:27:56.466Z,16.10
2019-04-16T13:30:29.226Z,16.20
2019-04-16T13:33:02.383Z,16.00
2019-04-16T13:35:35.450Z,15.30
2019-04-16T13:38:10.149Z,15.90
2019-04-16T13:40:43.967Z,16.10
2019-04-16T13:43:33.749Z,16.00
2019-04-16T13:46:07.567Z,15.90
2019-04-16T13:48:48.273Z,15.90
2019-04-16T13:51:22.794Z,16.20
2019-04-16T13:54:00.381Z,16.60
2019-04-16T13:56:35.347Z,16.50
2019-04-16T13:59:10.026Z,16.30
2019-04-16T14:01:45.979Z,16.50
2019-04-16T14:04:19.230Z,16.90
2019-04-16T14:06:52.526Z,16.70
2019-04-16T14:09:25.801Z,16.10
2019-04-16T14:11:58.949Z,15.90
2019-04-16T14:14:32.290Z,16.00
2019-04-16T14:17:10.063Z,16.30
2019-04-16T14:19:40.407Z,16.20
2019-04-16T14:22:13.296Z,16.10
2019-04-16T14:24:46.266Z,16.10
2019-04-16T14:27:19.254Z,16.30
2019-04-16T14:29:52.586Z,16.20
2019-04-16T14:32:25.426Z,16.40
2019-04-16T14:35:00.307Z,15.90
2019-04-16T14:37:33.754Z,16.20
2019-04-16T14:40:25.470Z,16.00
2019-04-16T14:42:58.724Z,16.00
2019-04-16T14:45:57.035Z,15.90
2019-04-16T14:48:17.206Z,15.90
2019-04-16T14:50:50.187Z,16.00
2019-04-16T14:53:40.168Z,16.00
2019-04-16T14:56:17.630Z,16.00
2019-04-16T14:58:52.171Z,16.40
2019-04-16T15:01:32.750Z,15.90
2019-04-16T15:04:19.170Z,15.90
2019-04-16T15:06:56.788Z,15.90
2019-04-16T15:09:35.288Z,15.60
2019-04-16T15:12:08.543Z,15.50
2019-04-16T15:14:59.890Z,15.50
2019-04-16T15:17:32.829Z,15.50
2019-04-16T15:20:07.288Z,15.40
2019-04-16T15:22:41.697Z,15.60
2019-04-16T15:25:21.968Z,15.50
2019-04-16T15:28:02.462Z,15.10
2019-04-16T15:30:42.948Z,15.20
2019-04-16T15:33:17.449Z,14.80
2019-04-16T15:35:51.948Z,14.70
2019-04-16T15:38:26.613Z,14.50
2019-04-16T15:41:17.836Z,14.60
2019-04-16T15:44:08.569Z,14.60
2019-04-16T15:46:48.889Z,14.40
2019-04-16T15:49:39.548Z,14.50
2019-04-16T15:52:19.868Z,14.50
2019-04-16T15:54:54.410Z,14.50
2019-04-16T15:57:45.029Z,14.70
2019-04-16T16:00:35.489Z,14.50
2019-04-16T16:03:10.046Z,14.30
2019-04-16T16:05:59.794Z,14.30
2019-04-16T16:08:35.839Z,14.40
2019-04-16T16:11:22.391Z,14.20
2019-04-16T16:13:56.638Z,14.10
2019-04-16T16:16:41.546Z,14.10
2019-04-16T16:19:04.951Z,14.00
2019-04-16T16:21:38.248Z,13.90
2019-04-16T16:24:11.205Z,13.90
2019-04-16T16:26:44.626Z,13.50
2019-04-16T16:29:17.685Z,13.60
2019-04-16T16:31:50.646Z,13.70
2019-04-16T16:34:24.193Z,13.70
2019-04-16T16:36:57.014Z,13.70
2019-04-16T16:39:30.027Z,13.70
2019-04-16T16:42:03.217Z,13.60
2019-04-16T16:44:36.134Z,13.60
2019-04-16T16:47:13.607Z,13.50
2019-04-16T16:49:46.615Z,13.20
2019-04-16T16:52:24.048Z,13.10
2019-04-16T16:54:58.490Z,12.90
2019-04-16T16:57:33.168Z,12.90
2019-04-16T17:00:24.110Z,12.80
2019-04-16T17:03:13.470Z,12.70
2019-04-16T17:05:46.306Z,12.80
2019-04-16T17:08:19.294Z,12.60
2019-04-16T17:10:52.228Z,12.50
2019-04-16T17:13:25.285Z,12.40
2019-04-16T17:15:58.225Z,12.10
2019-04-16T17:18:31.095Z,12.00
2019-04-16T17:21:06.987Z,11.80
2019-04-16T17:26:15.493Z,11.10
2019-04-16T17:28:45.546Z,10.90
2019-04-16T17:31:18.655Z,10.70
2019-04-16T17:33:51.394Z,10.80
2019-04-16T17:36:24.247Z,10.90
2019-04-16T17:38:57.894Z,10.50
2019-04-16T17:41:35.056Z,10.00
2019-04-16T17:44:21.936Z,9.90
2019-04-16T17:47:02.107Z,9.90
2019-04-16T17:49:45.247Z,9.70
2019-04-16T17:52:17.914Z,9.60
2019-04-16T17:54:58.506Z,9.50
2019-04-16T17:57:36.287Z,9.50
2019-04-16T18:00:19.985Z,9.30
2019-04-16T18:02:54.672Z,9.30
2019-04-16T18:05:30.548Z,9.70
2019-04-16T18:08:14.130Z,9.60
2019-04-16T18:10:54.867Z,9.80
2019-04-16T18:13:44.412Z,9.70
2019-04-16T18:16:23.573Z,9.40
2019-04-16T18:19:14.363Z,9.40
2019-04-16T18:22:07.047Z,9.30
2019-04-16T18:24:44.776Z,9.50
2019-04-16T18:27:35.467Z,9.40
2019-04-16T18:30:15.966Z,9.50
2019-04-16T18:33:07.371Z,9.40
2019-04-16T18:35:53.654Z,9.50
2019-04-16T18:38:26.345Z,9.70
2019-04-16T18:41:07.991Z,9.50
2019-04-16T18:43:52.827Z,9.50
2019-04-16T18:46:43.347Z,9.40
2019-04-16T18:49:20.474Z,9.40
2019-04-16T18:51:56.093Z,9.30
2019-04-16T18:54:28.959Z,9.40
2019-04-16T18:57:01.777Z,9.30
2019-04-16T18:59:34.794Z,9.10
2019-04-16T19:02:09.752Z,8.80
2019-04-16T19:04:43.447Z,8.60
2019-04-16T19:07:16.547Z,8.50
2019-04-16T19:09:49.426Z,8.50
2019-04-16T19:12:22.410Z,8.30
2019-04-16T19:14:55.667Z,8.40
2019-04-16T19:17:28.934Z,8.50
2019-04-16T19:20:04.327Z,8.60
2019-04-16T19:22:36.655Z,8.40
2019-04-16T19:25:09.574Z,8.80
2019-04-16T19:27:42.906Z,8.50
2019-04-16T19:30:15.766Z,8.40
2019-04-16T19:32:48.807Z,8.10
2019-04-16T19:35:22.623Z,8.10
2019-04-16T19:37:56.713Z,8.00
2019-04-16T19:40:29.726Z,8.30
2019-04-16T19:43:03.543Z,8.50
2019-04-16T19:45:37.547Z,8.60
2019-04-16T19:48:10.526Z,8.30
2019-04-16T19:50:43.228Z,8.00
2019-04-16T19:53:16.317Z,8.30
2019-04-16T19:55:49.386Z,8.40
2019-04-16T19:58:22.467Z,8.30
2019-04-16T20:00:57.755Z,8.20
2019-04-16T20:03:31.361Z,8.30
2019-04-16T20:06:05.918Z,8.00
2019-04-16T20:08:40.006Z,7.80
2019-04-16T20:11:13.609Z,7.70
2019-04-16T20:13:46.727Z,7.60
2019-04-16T20:16:20.327Z,7.40
2019-04-16T20:18:53.426Z,7.50
2019-04-16T20:21:26.289Z,7.60
2019-04-16T20:24:00.215Z,7.90
2019-04-16T20:26:33.619Z,8.10
2019-04-16T20:29:07.446Z,8.10
2019-04-16T20:31:40.270Z,7.90
2019-04-16T20:34:13.332Z,7.60
2019-04-16T20:36:47.527Z,7.60
2019-04-16T20:39:20.406Z,7.40
2019-04-16T20:41:58.766Z,7.30
2019-04-16T20:44:28.946Z,7.60
2019-04-16T20:47:07.303Z,7.40
2019-04-16T20:49:38.006Z,7.60
2019-04-16T20:52:10.813Z,7.70
2019-04-16T20:54:45.465Z,7.70
2019-04-16T20:57:18.367Z,7.50
2019-04-16T20:59:51.826Z,7.50
2019-04-16T21:02:26.354Z,7.70
2019-04-16T21:05:02.693Z,7.80
2019-04-16T21:07:33.726Z,7.70
2019-04-16T21:10:07.107Z,7.60
2019-04-16T21:12:45.099Z,7.50
2019-04-16T21:15:16.079Z,7.40
2019-04-16T21:17:49.447Z,7.20
2019-04-16T21:20:22.366Z,7.10
2019-04-16T21:22:57.626Z,7.10
2019-04-16T21:25:30.214Z,6.90
2019-04-16T21:28:13.552Z,7.20
2019-04-16T21:30:47.940Z,7.40
2019-04-16T21:33:34.586Z,7.40
2019-04-16T21:36:27.226Z,7.40
2019-04-16T21:39:07.866Z,7.40
2019-04-16T21:41:40.874Z,7.60
2019-04-16T21:44:13.886Z,7.60
2019-04-16T21:46:51.785Z,7.40
2019-04-16T21:49:21.376Z,7.40
2019-04-16T21:52:09.345Z,7.30
2019-04-16T21:54:42.728Z,7.40
2019-04-16T21:57:16.249Z,7.30
2019-04-16T21:59:50.333Z,7.30
2019-04-16T22:02:31.050Z,7.30
2019-04-16T22:05:03.835Z,7.20
2019-04-16T22:07:36.668Z,7.30
2019-04-16T22:10:09.466Z,7.30
2019-04-16T22:12:44.720Z,7.20
2019-04-16T22:15:17.607Z,7.10
2019-04-16T22:17:50.545Z,7.20
2019-04-16T22:20:23.447Z,7.10
2019-04-16T22:22:56.732Z,7.00
2019-04-16T22:25:30.335Z,7.10
2019-04-16T22:28:03.186Z,7.00
2019-04-16T22:30:37.953Z,7.10
2019-04-16T22:33:11.645Z,7.00
2019-04-16T22:35:44.427Z,6.80
2019-04-16T22:38:17.826Z,7.00
2019-04-16T22:40:56.094Z,6.90
2019-04-16T22:43:46.287Z,7.00
2019-04-16T22:46:20.951Z,6.70
2019-04-16T22:48:58.394Z,6.90
2019-04-16T22:51:31.469Z,7.00
2019-04-16T22:54:04.226Z,7.10
2019-04-16T22:56:38.772Z,6.70
2019-04-16T22:59:11.646Z,6.80
2019-04-16T23:01:52.930Z,7.00
2019-04-16T23:04:26.165Z,7.00
2019-04-16T23:06:58.532Z,7.00
2019-04-16T23:09:31.446Z,7.00
2019-04-16T23:12:04.332Z,6.90
2019-04-16T23:14:37.166Z,6.90
2019-04-16T23:17:13.177Z,6.80
2019-04-16T23:19:45.986Z,6.80
2019-04-16T23:22:19.206Z,6.70
2019-04-16T23:24:55.355Z,6.70
2019-04-16T23:27:27.646Z,6.80
2019-04-16T23:30:01.076Z,6.90
2019-04-16T23:32:33.988Z,7.00
2019-04-16T23:35:10.803Z,6.60
2019-04-16T23:37:41.627Z,6.70
2019-04-16T23:40:14.607Z,6.70
2019-04-16T23:42:50.433Z,6.80
2019-04-16T23:45:31.118Z,6.60
2019-04-16T23:48:18.926Z,6.80
2019-04-16T23:51:11.586Z,6.70
2019-04-16T23:53:44.246Z,6.50
2019-04-16T23:56:17.873Z,6.40
2019-04-16T23:59:04.508Z,6.40
